createdAt,value
2018-12-30T00:02:25.613Z,99.10
2018-12-30T00:04:55.099Z,98.90
2018-12-30T00:07:24.679Z,99.00
2018-12-30T00:09:53.809Z,99.00
2018-12-30T00:12:32.389Z,99.10
2018-12-30T00:15:02.022Z,99.10
2018-12-30T00:17:31.259Z,99.10
2018-12-30T00:20:00.758Z,99.20
2018-12-30T00:22:42.714Z,99.30
2018-12-30T00:25:13.529Z,99.30
2018-12-30T00:27:42.686Z,99.50
2018-12-30T00:30:11.833Z,99.50
2018-12-30T00:32:41.059Z,99.60
2018-12-30T00:35:10.175Z,99.80
2018-12-30T00:37:39.360Z,99.70
2018-12-30T00:40:08.956Z,99.70
2018-12-30T00:42:38.626Z,99.70
2018-12-30T00:45:07.702Z,99.70
2018-12-30T00:47:36.880Z,99.70
2018-12-30T00:50:05.971Z,99.70
2018-12-30T00:52:35.083Z,99.80
2018-12-30T00:55:04.557Z,99.80
2018-12-30T00:57:33.789Z,99.90
2018-12-30T01:00:02.868Z,99.90
2018-12-30T01:02:32.033Z,99.90
2018-12-30T01:05:01.146Z,99.90
2018-12-30T01:07:30.319Z,99.90
2018-12-30T01:09:59.676Z,99.90
2018-12-30T01:12:28.790Z,99.90
2018-12-30T01:14:57.927Z,99.90
2018-12-30T01:17:27.052Z,99.90
2018-12-30T01:19:56.153Z,99.90
2018-12-30T01:22:25.360Z,99.90
2018-12-30T01:24:54.439Z,99.90
2018-12-30T01:27:23.569Z,99.90
2018-12-30T01:29:52.776Z,99.90
2018-12-30T01:32:21.878Z,99.90
2018-12-30T01:34:50.969Z,99.90
2018-12-30T01:37:20.089Z,99.90
2018-12-30T01:39:49.265Z,99.90
2018-12-30T01:42:18.388Z,99.90
2018-12-30T01:44:47.477Z,99.90
2018-12-30T01:47:16.599Z,99.90
2018-12-30T01:49:45.866Z,99.90
2018-12-30T01:52:14.987Z,99.90
2018-12-30T01:55:03.514Z,99.90
2018-12-30T01:57:32.692Z,99.90
2018-12-30T02:00:01.774Z,99.90
2018-12-30T02:02:30.891Z,99.90
2018-12-30T02:04:59.983Z,99.90
2018-12-30T02:07:29.094Z,99.90
2018-12-30T02:09:58.185Z,99.90
2018-12-30T02:12:27.394Z,99.90
2018-12-30T02:14:56.516Z,99.90
2018-12-30T02:17:25.707Z,99.90
2018-12-30T02:19:54.804Z,99.90
2018-12-30T02:22:23.921Z,99.90
2018-12-30T02:24:53.108Z,99.90
2018-12-30T02:27:22.334Z,99.90
2018-12-30T02:29:51.463Z,99.90
2018-12-30T02:32:20.647Z,99.90
2018-12-30T02:34:49.730Z,99.90
2018-12-30T02:37:19.123Z,99.90
2018-12-30T02:39:48.289Z,99.90
2018-12-30T02:42:17.383Z,99.90
2018-12-30T02:44:46.550Z,99.90
2018-12-30T02:47:15.716Z,99.90
2018-12-30T02:49:44.881Z,99.90
2018-12-30T02:52:14.080Z,99.90
2018-12-30T02:54:43.725Z,99.90
2018-12-30T02:57:12.839Z,99.90
2018-12-30T02:59:42.397Z,99.90
2018-12-30T03:02:11.593Z,99.90
2018-12-30T03:04:40.643Z,99.90
2018-12-30T03:07:09.751Z,99.90
2018-12-30T03:09:38.845Z,99.90
2018-12-30T03:12:08.239Z,99.90
2018-12-30T03:14:37.320Z,99.90
2018-12-30T03:17:06.514Z,99.90
2018-12-30T03:19:35.604Z,99.90
2018-12-30T03:22:04.715Z,99.90
2018-12-30T03:24:33.803Z,99.90
2018-12-30T03:27:02.936Z,99.90
2018-12-30T03:29:32.070Z,99.90
2018-12-30T03:32:01.326Z,99.90
2018-12-30T03:34:30.521Z,99.90
2018-12-30T03:36:59.668Z,99.90
2018-12-30T03:39:28.766Z,99.90
2018-12-30T03:41:57.859Z,99.90
2018-12-30T03:44:26.987Z,99.90
2018-12-30T03:46:56.073Z,99.90
2018-12-30T03:49:25.254Z,99.90
2018-12-30T03:51:54.315Z,99.90
2018-12-30T03:54:23.435Z,99.90
2018-12-30T03:56:52.528Z,99.90
2018-12-30T03:59:21.709Z,99.90
2018-12-30T04:01:50.784Z,99.90
2018-12-30T04:04:20.059Z,99.90
2018-12-30T04:06:49.126Z,99.90
2018-12-30T04:09:18.435Z,99.90
2018-12-30T04:11:47.524Z,99.90
2018-12-30T04:14:16.650Z,99.90
2018-12-30T04:16:45.795Z,99.90
2018-12-30T04:19:14.897Z,99.90
2018-12-30T04:21:44.074Z,99.90
2018-12-30T04:24:13.254Z,99.90
2018-12-30T04:26:42.421Z,99.90
2018-12-30T04:29:11.609Z,99.90
2018-12-30T04:31:40.692Z,99.90
2018-12-30T04:34:09.997Z,99.90
2018-12-30T04:36:39.068Z,99.90
2018-12-30T04:39:08.175Z,99.90
2018-12-30T04:41:37.363Z,99.90
2018-12-30T04:44:06.524Z,99.90
2018-12-30T04:46:35.610Z,99.90
2018-12-30T04:49:04.723Z,99.90
2018-12-30T04:51:33.811Z,99.90
2018-12-30T04:54:02.920Z,99.90
2018-12-30T04:56:32.011Z,99.90
2018-12-30T04:59:01.203Z,99.90
2018-12-30T05:01:30.283Z,99.90
2018-12-30T05:03:59.396Z,99.90
2018-12-30T05:06:28.478Z,99.90
2018-12-30T05:08:57.592Z,99.90
2018-12-30T05:11:26.682Z,99.90
2018-12-30T05:13:55.881Z,99.90
2018-12-30T05:16:24.956Z,99.90
2018-12-30T05:18:54.221Z,99.90
2018-12-30T05:21:23.317Z,99.90
2018-12-30T05:23:52.539Z,99.90
2018-12-30T05:26:21.605Z,99.90
2018-12-30T05:28:50.824Z,99.90
2018-12-30T05:31:19.894Z,99.90
2018-12-30T05:33:49.004Z,99.90
2018-12-30T05:36:18.097Z,99.90
2018-12-30T05:38:47.203Z,99.90
2018-12-30T05:41:16.398Z,99.90
2018-12-30T05:43:45.489Z,99.90
2018-12-30T05:46:14.650Z,99.90
2018-12-30T05:48:43.810Z,99.90
2018-12-30T05:51:12.914Z,99.90
2018-12-30T05:53:42.043Z,99.90
2018-12-30T05:56:11.157Z,99.90
2018-12-30T05:58:40.252Z,99.90
2018-12-30T06:01:09.360Z,99.90
2018-12-30T06:03:38.450Z,99.90
2018-12-30T06:06:07.563Z,99.90
2018-12-30T06:08:36.658Z,99.90
2018-12-30T06:11:05.760Z,99.90
2018-12-30T06:13:34.854Z,99.90
2018-12-30T06:16:03.968Z,99.90
2018-12-30T06:18:33.159Z,99.90
2018-12-30T06:21:02.253Z,99.90
2018-12-30T06:23:31.340Z,99.90
2018-12-30T06:26:00.453Z,99.90
2018-12-30T06:28:29.545Z,99.90
2018-12-30T06:30:58.658Z,99.90
2018-12-30T06:33:27.752Z,99.90
2018-12-30T06:35:56.954Z,99.90
2018-12-30T06:38:26.043Z,99.90
2018-12-30T06:40:55.239Z,99.90
2018-12-30T06:43:24.382Z,99.90
2018-12-30T06:45:53.578Z,99.90
2018-12-30T06:48:22.666Z,99.90
2018-12-30T06:50:51.842Z,99.90
2018-12-30T06:53:20.917Z,99.90
2018-12-30T06:55:50.045Z,99.90
2018-12-30T06:58:19.227Z,99.90
2018-12-30T07:00:48.402Z,99.80
2018-12-30T07:03:17.476Z,99.40
2018-12-30T07:05:46.596Z,99.10
2018-12-30T07:08:15.852Z,98.90
2018-12-30T07:10:44.991Z,98.70
2018-12-30T07:13:14.086Z,98.90
2018-12-30T07:15:43.202Z,98.60
2018-12-30T07:18:12.294Z,98.70
2018-12-30T07:20:41.405Z,98.80
2018-12-30T07:23:10.550Z,97.80
2018-12-30T07:25:39.667Z,97.70
2018-12-30T07:28:08.756Z,97.30
2018-12-30T07:30:37.869Z,97.40
2018-12-30T07:33:06.962Z,97.10
2018-12-30T07:35:36.082Z,96.00
2018-12-30T07:38:05.257Z,96.30
2018-12-30T07:40:34.432Z,96.30
2018-12-30T07:43:03.511Z,97.20
2018-12-30T07:45:32.625Z,97.00
2018-12-30T07:48:01.722Z,97.50
2018-12-30T07:50:30.841Z,97.90
2018-12-30T07:52:59.930Z,98.00
2018-12-30T07:55:29.041Z,98.00
2018-12-30T07:57:58.231Z,98.10
2018-12-30T08:00:27.412Z,98.20
2018-12-30T08:02:56.499Z,98.10
2018-12-30T08:05:26.498Z,97.90
2018-12-30T08:07:55.778Z,97.60
2018-12-30T08:10:24.882Z,97.20
2018-12-30T08:12:54.026Z,97.70
2018-12-30T08:15:23.101Z,97.80
2018-12-30T08:17:52.220Z,97.60
2018-12-30T08:20:21.311Z,97.20
2018-12-30T08:22:50.421Z,97.50
2018-12-30T08:25:19.573Z,97.10
2018-12-30T08:27:48.748Z,97.90
2018-12-30T08:30:17.835Z,97.50
2018-12-30T08:32:46.951Z,97.30
2018-12-30T08:35:16.036Z,97.30
2018-12-30T08:37:45.163Z,96.40
2018-12-30T08:40:14.404Z,96.10
2018-12-30T08:42:43.538Z,96.70
2018-12-30T08:45:12.624Z,96.30
2018-12-30T08:47:41.739Z,96.30
2018-12-30T08:50:10.829Z,96.60
2018-12-30T08:52:39.932Z,96.50
2018-12-30T08:55:09.022Z,97.00
2018-12-30T08:57:38.136Z,96.90
2018-12-30T09:00:07.603Z,96.80
2018-12-30T09:02:36.720Z,96.40
2018-12-30T09:05:05.865Z,96.20
2018-12-30T09:07:34.961Z,96.50
2018-12-30T09:10:06.763Z,95.60
2018-12-30T09:12:35.859Z,95.70
2018-12-30T09:15:05.585Z,95.90
2018-12-30T09:17:34.696Z,95.30
2018-12-30T09:20:04.132Z,96.10
2018-12-30T09:22:33.364Z,95.70
2018-12-30T09:25:02.433Z,95.50
2018-12-30T09:27:31.635Z,95.20
2018-12-30T09:30:00.779Z,95.10
2018-12-30T09:32:29.881Z,95.20
2018-12-30T09:34:59.038Z,95.80
2018-12-30T09:37:28.258Z,94.40
2018-12-30T09:39:57.390Z,94.10
2018-12-30T09:42:26.590Z,94.40
2018-12-30T09:44:55.665Z,94.80
2018-12-30T09:47:24.783Z,94.60
2018-12-30T09:49:53.938Z,94.00
2018-12-30T09:52:23.029Z,94.50
2018-12-30T09:54:52.119Z,93.70
2018-12-30T09:57:21.327Z,93.90
2018-12-30T09:59:50.395Z,93.30
2018-12-30T10:02:19.595Z,92.80
2018-12-30T10:04:48.658Z,93.40
2018-12-30T10:07:17.778Z,92.70
2018-12-30T10:09:46.936Z,93.30
2018-12-30T10:12:16.108Z,92.60
2018-12-30T10:14:45.186Z,93.10
2018-12-30T10:17:14.305Z,92.10
2018-12-30T10:19:43.461Z,92.00
2018-12-30T10:22:12.553Z,92.10
2018-12-30T10:24:41.648Z,92.50
2018-12-30T10:27:10.765Z,91.90
2018-12-30T10:29:39.865Z,93.10
2018-12-30T10:32:08.987Z,92.40
2018-12-30T10:34:38.084Z,91.50
2018-12-30T10:37:07.550Z,91.80
2018-12-30T10:39:36.697Z,91.70
2018-12-30T10:42:05.908Z,91.20
2018-12-30T10:44:35.078Z,90.80
2018-12-30T10:47:04.177Z,92.00
2018-12-30T10:49:33.337Z,91.40
2018-12-30T10:52:02.533Z,91.30
2018-12-30T10:54:31.785Z,92.70
2018-12-30T10:57:00.869Z,91.90
2018-12-30T10:59:29.983Z,92.20
2018-12-30T11:01:59.137Z,92.60
2018-12-30T11:04:28.356Z,92.50
2018-12-30T11:06:57.554Z,92.00
2018-12-30T11:09:26.825Z,92.50
2018-12-30T11:11:55.976Z,92.40
2018-12-30T11:14:25.516Z,92.20
2018-12-30T11:16:56.913Z,92.30
2018-12-30T11:19:26.089Z,92.80
2018-12-30T11:21:55.303Z,92.70
2018-12-30T11:24:24.511Z,92.40
2018-12-30T11:27:13.037Z,92.90
2018-12-30T11:29:44.759Z,92.60
2018-12-30T11:32:14.551Z,92.70
2018-12-30T11:34:43.738Z,92.30
2018-12-30T11:37:12.934Z,92.40
2018-12-30T11:39:42.116Z,92.70
2018-12-30T11:42:11.204Z,92.20
2018-12-30T11:44:40.398Z,92.20
2018-12-30T11:47:30.606Z,91.60
2018-12-30T11:49:59.719Z,92.60
2018-12-30T11:52:28.923Z,92.10
2018-12-30T11:54:58.252Z,92.00
2018-12-30T11:57:27.397Z,92.20
2018-12-30T11:59:56.528Z,92.80
2018-12-30T12:02:25.622Z,92.50
2018-12-30T12:04:56.674Z,92.70
2018-12-30T12:07:25.754Z,91.50
2018-12-30T12:09:54.885Z,91.40
2018-12-30T12:12:23.978Z,91.40
2018-12-30T12:14:53.105Z,91.30
2018-12-30T12:17:22.190Z,91.00
2018-12-30T12:19:51.311Z,90.50
2018-12-30T12:22:20.495Z,90.90
2018-12-30T12:24:49.665Z,90.40
2018-12-30T12:27:18.831Z,90.40
2018-12-30T12:29:47.987Z,90.30
2018-12-30T12:32:17.071Z,90.60
2018-12-30T12:34:46.257Z,90.80
2018-12-30T12:37:15.335Z,90.30
2018-12-30T12:39:44.524Z,90.70
2018-12-30T12:42:13.598Z,90.60
2018-12-30T12:44:42.826Z,90.00
2018-12-30T12:47:11.898Z,89.30
2018-12-30T12:49:41.086Z,89.40
2018-12-30T12:52:10.285Z,88.50
2018-12-30T12:54:39.470Z,88.60
2018-12-30T12:57:08.957Z,87.70
2018-12-30T12:59:38.066Z,88.80
2018-12-30T13:02:07.246Z,88.00
2018-12-30T13:04:36.344Z,87.50
2018-12-30T13:07:05.505Z,87.70
2018-12-30T13:09:34.616Z,88.40
2018-12-30T13:12:03.769Z,87.40
2018-12-30T13:14:52.384Z,89.10
2018-12-30T13:17:21.465Z,89.90
2018-12-30T13:19:50.606Z,90.00
2018-12-30T13:22:19.805Z,88.30
2018-12-30T13:24:48.979Z,88.80
2018-12-30T13:27:18.075Z,89.00
2018-12-30T13:29:47.385Z,88.30
2018-12-30T13:32:16.472Z,89.20
2018-12-30T13:34:45.590Z,88.00
2018-12-30T13:37:14.679Z,88.60
2018-12-30T13:39:43.800Z,89.10
2018-12-30T13:42:13.028Z,88.30
2018-12-30T13:44:42.145Z,89.40
2018-12-30T13:47:11.226Z,89.20
2018-12-30T13:49:40.472Z,88.00
2018-12-30T13:52:09.712Z,87.70
2018-12-30T13:54:38.906Z,88.10
2018-12-30T13:57:08.746Z,87.80
2018-12-30T13:59:37.860Z,87.70
2018-12-30T14:02:07.042Z,89.00
2018-12-30T14:04:36.213Z,89.00
2018-12-30T14:07:05.344Z,89.10
2018-12-30T14:09:34.521Z,88.30
2018-12-30T14:12:03.613Z,89.30
2018-12-30T14:14:32.739Z,88.70
2018-12-30T14:17:01.910Z,89.00
2018-12-30T14:19:31.403Z,86.50
2018-12-30T14:22:00.499Z,88.40
2018-12-30T14:24:29.628Z,85.70
2018-12-30T14:26:59.993Z,84.60
2018-12-30T14:29:29.299Z,84.70
2018-12-30T14:31:58.394Z,84.90
2018-12-30T14:34:27.599Z,82.80
2018-12-30T14:36:56.769Z,83.40
2018-12-30T14:39:25.959Z,83.70
2018-12-30T14:41:55.110Z,85.20
2018-12-30T14:44:24.203Z,83.40
2018-12-30T14:46:53.579Z,85.20
2018-12-30T14:49:22.743Z,84.50
2018-12-30T14:51:51.835Z,85.10
2018-12-30T14:54:21.054Z,85.80
2018-12-30T14:56:50.129Z,86.00
2018-12-30T14:59:19.245Z,84.90
2018-12-30T15:01:48.341Z,86.30
2018-12-30T15:04:17.593Z,85.80
2018-12-30T15:06:46.666Z,86.90
2018-12-30T15:09:15.781Z,85.80
2018-12-30T15:11:44.980Z,86.00
2018-12-30T15:14:14.107Z,85.20
2018-12-30T15:16:43.232Z,87.30
2018-12-30T15:19:12.334Z,85.30
2018-12-30T15:21:41.450Z,86.30
2018-12-30T15:24:10.603Z,87.00
2018-12-30T15:26:39.680Z,86.70
2018-12-30T15:29:08.801Z,85.80
2018-12-30T15:31:37.915Z,86.10
2018-12-30T15:34:07.035Z,85.50
2018-12-30T15:36:36.370Z,85.80
2018-12-30T15:39:08.300Z,86.70
2018-12-30T15:41:37.383Z,87.30
2018-12-30T15:44:06.614Z,87.60
2018-12-30T15:46:35.677Z,88.20
2018-12-30T15:49:04.796Z,88.00
2018-12-30T15:51:33.907Z,88.00
2018-12-30T15:54:03.033Z,88.00
2018-12-30T15:56:32.169Z,88.60
2018-12-30T15:59:01.283Z,89.10
2018-12-30T16:01:30.416Z,89.40
2018-12-30T16:03:59.541Z,90.10
2018-12-30T16:06:28.665Z,90.00
2018-12-30T16:08:57.779Z,90.00
2018-12-30T16:11:26.942Z,90.30
2018-12-30T16:13:56.117Z,90.60
2018-12-30T16:16:25.300Z,90.40
2018-12-30T16:18:54.475Z,90.70
2018-12-30T16:21:26.394Z,90.70
2018-12-30T16:23:55.507Z,91.00
2018-12-30T16:26:24.697Z,91.30
2018-12-30T16:28:53.823Z,91.60
2018-12-30T16:31:28.029Z,91.80
2018-12-30T16:33:53.928Z,91.80
2018-12-30T16:36:23.145Z,92.00
2018-12-30T16:38:52.333Z,92.20
2018-12-30T16:41:21.532Z,92.40
2018-12-30T16:43:50.621Z,92.60
2018-12-30T16:46:19.734Z,92.80
2018-12-30T16:48:48.923Z,92.90
2018-12-30T16:51:18.061Z,93.10
2018-12-30T16:53:47.222Z,93.20
2018-12-30T16:56:16.869Z,93.40
2018-12-30T16:58:45.980Z,93.50
2018-12-30T17:01:19.075Z,93.70
2018-12-30T17:04:07.607Z,93.60
2018-12-30T17:06:36.731Z,93.90
2018-12-30T17:09:06.908Z,94.00
2018-12-30T17:11:36.045Z,94.00
2018-12-30T17:14:05.156Z,94.20
2018-12-30T17:16:34.264Z,94.20
2018-12-30T17:19:03.477Z,94.30
2018-12-30T17:21:32.592Z,94.30
2018-12-30T17:24:01.772Z,94.50
2018-12-30T17:26:30.930Z,94.40
2018-12-30T17:29:00.158Z,94.70
2018-12-30T17:31:29.278Z,94.30
2018-12-30T17:33:58.465Z,94.30
2018-12-30T17:36:27.604Z,94.30
2018-12-30T17:38:56.806Z,94.40
2018-12-30T17:41:26.032Z,94.40
2018-12-30T17:43:55.277Z,94.50
2018-12-30T17:46:24.393Z,94.50
2018-12-30T17:48:53.965Z,94.40
2018-12-30T17:51:23.108Z,94.00
2018-12-30T17:53:52.214Z,93.70
2018-12-30T17:56:21.360Z,93.70
2018-12-30T17:58:50.565Z,93.70
2018-12-30T18:01:19.663Z,93.50
2018-12-30T18:03:48.835Z,93.30
2018-12-30T18:06:18.014Z,93.20
2018-12-30T18:08:47.184Z,93.10
2018-12-30T18:11:16.391Z,92.90
2018-12-30T18:13:45.494Z,93.00
2018-12-30T18:16:15.014Z,92.50
2018-12-30T18:18:44.196Z,92.20
2018-12-30T18:21:13.391Z,92.20
2018-12-30T18:23:42.562Z,92.10
2018-12-30T18:26:13.674Z,91.90
2018-12-30T18:28:42.788Z,91.80
2018-12-30T18:31:14.097Z,91.70
2018-12-30T18:33:43.212Z,91.50
2018-12-30T18:36:13.316Z,91.30
2018-12-30T18:38:42.491Z,91.50
2018-12-30T18:41:14.540Z,91.50
2018-12-30T18:43:43.718Z,91.30
2018-12-30T18:46:15.157Z,91.30
2018-12-30T18:48:44.336Z,91.50
2018-12-30T18:51:14.197Z,91.70
2018-12-30T18:53:43.380Z,91.70
2018-12-30T18:56:14.377Z,91.80
2018-12-30T18:58:43.482Z,91.90
2018-12-30T19:01:16.017Z,91.90
2018-12-30T19:03:45.127Z,92.20
2018-12-30T19:06:14.441Z,92.30
2018-12-30T19:08:43.549Z,92.20
2018-12-30T19:11:17.044Z,92.20
2018-12-30T19:13:46.168Z,92.60
2018-12-30T19:16:15.382Z,92.30
2018-12-30T19:18:44.587Z,92.40
2018-12-30T19:21:14.828Z,92.00
2018-12-30T19:23:43.937Z,92.10
2018-12-30T19:26:14.472Z,91.70
2018-12-30T19:28:43.760Z,91.40
2018-12-30T19:31:13.861Z,91.60
2018-12-30T19:33:42.978Z,91.50
2018-12-30T19:36:12.146Z,91.30
2018-12-30T19:38:41.363Z,91.30
2018-12-30T19:41:12.506Z,91.50
2018-12-30T19:43:42.020Z,91.50
2018-12-30T19:46:14.466Z,91.50
2018-12-30T19:48:43.577Z,91.30
2018-12-30T19:51:15.433Z,91.30
2018-12-30T19:53:44.593Z,91.50
2018-12-30T19:56:13.882Z,91.30
2018-12-30T19:58:43.078Z,91.40
2018-12-30T20:01:12.230Z,91.40
2018-12-30T20:03:41.447Z,91.60
2018-12-30T20:06:10.595Z,91.60
2018-12-30T20:08:39.685Z,91.50
2018-12-30T20:11:10.708Z,91.50
2018-12-30T20:13:39.924Z,91.40
2018-12-30T20:16:09.258Z,91.30
2018-12-30T20:18:38.402Z,91.50
2018-12-30T20:21:07.526Z,91.60
2018-12-30T20:23:36.697Z,91.60
2018-12-30T20:26:05.907Z,91.70
2018-12-30T20:28:35.139Z,91.80
2018-12-30T20:31:04.333Z,91.90
2018-12-30T20:33:33.662Z,91.90
2018-12-30T20:36:02.790Z,92.00
2018-12-30T20:38:32.139Z,92.00
2018-12-30T20:41:01.340Z,92.20
2018-12-30T20:43:30.461Z,92.10
2018-12-30T20:45:59.612Z,92.20
2018-12-30T20:48:28.747Z,92.10
2018-12-30T20:50:57.916Z,92.20
2018-12-30T20:53:27.092Z,92.30
2018-12-30T20:55:56.278Z,92.30
2018-12-30T20:58:25.392Z,92.30
2018-12-30T21:00:54.554Z,92.30
2018-12-30T21:03:23.645Z,92.40
2018-12-30T21:05:52.872Z,92.60
2018-12-30T21:08:21.969Z,92.90
2018-12-30T21:10:51.209Z,92.90
2018-12-30T21:13:20.292Z,93.00
2018-12-30T21:15:49.417Z,93.10
2018-12-30T21:18:18.511Z,93.20
2018-12-30T21:20:47.773Z,93.30
2018-12-30T21:23:16.862Z,93.30
2018-12-30T21:25:46.062Z,93.40
2018-12-30T21:28:15.252Z,93.40
2018-12-30T21:30:44.351Z,93.50
2018-12-30T21:33:13.472Z,93.50
2018-12-30T21:35:42.683Z,93.70
2018-12-30T21:38:11.747Z,93.70
2018-12-30T21:40:40.865Z,93.80
2018-12-30T21:43:09.958Z,93.90
2018-12-30T21:45:39.102Z,94.00
2018-12-30T21:48:08.224Z,94.10
2018-12-30T21:50:37.342Z,94.10
2018-12-30T21:53:06.445Z,94.10
2018-12-30T21:55:35.601Z,94.20
2018-12-30T21:58:04.777Z,94.40
2018-12-30T22:00:33.948Z,94.50
2018-12-30T22:03:05.571Z,94.60
2018-12-30T22:05:33.918Z,94.50
2018-12-30T22:08:03.016Z,94.50
2018-12-30T22:10:32.128Z,94.60
2018-12-30T22:13:01.225Z,94.70
2018-12-30T22:15:30.399Z,94.80
2018-12-30T22:17:59.495Z,94.80
2018-12-30T22:20:28.776Z,95.10
2018-12-30T22:22:57.857Z,95.20
2018-12-30T22:25:27.042Z,95.40
2018-12-30T22:27:56.138Z,95.50
2018-12-30T22:30:25.235Z,95.60
2018-12-30T22:32:54.381Z,95.70
2018-12-30T22:35:23.469Z,95.60
2018-12-30T22:37:52.596Z,95.70
2018-12-30T22:40:21.692Z,95.70
2018-12-30T22:42:50.822Z,95.70
2018-12-30T22:45:19.916Z,95.70
2018-12-30T22:47:49.447Z,96.00
2018-12-30T22:50:18.530Z,95.70
2018-12-30T22:52:48.940Z,95.60
2018-12-30T22:55:18.968Z,95.60
2018-12-30T22:57:48.086Z,95.70
2018-12-30T23:00:27.861Z,95.90
2018-12-30T23:02:56.985Z,96.00
2018-12-30T23:05:26.178Z,96.20
2018-12-30T23:07:55.240Z,96.40
2018-12-30T23:10:24.329Z,96.50
2018-12-30T23:12:53.448Z,96.60
2018-12-30T23:15:22.537Z,96.80
2018-12-30T23:17:51.655Z,97.10
2018-12-30T23:20:20.752Z,97.10
2018-12-30T23:22:49.865Z,97.50
2018-12-30T23:25:18.959Z,97.50
2018-12-30T23:27:48.073Z,97.50
2018-12-30T23:30:17.166Z,97.70
2018-12-30T23:32:46.286Z,98.00
2018-12-30T23:35:15.378Z,98.20
2018-12-30T23:37:44.499Z,98.20
2018-12-30T23:40:13.657Z,98.40
2018-12-30T23:42:42.775Z,98.40
2018-12-30T23:45:11.870Z,98.30
2018-12-30T23:47:40.984Z,98.40
2018-12-30T23:50:10.081Z,98.50
2018-12-30T23:52:39.198Z,98.80
2018-12-30T23:55:08.291Z,99.00
2018-12-30T23:57:37.408Z,99.20
